sensor_id;sensor_type;location;lat;lon;timestamp;P1;durP1;ratioP1;P2;durP2;ratioP2
19131;SDS011;9698;51.976;7.570;2023-06-24T00:00:51;10.80;;;8.60;;
19131;SDS011;9698;51.976;7.570;2023-06-24T00:03:19;9.23;;;7.70;;
19131;SDS011;9698;51.976;7.570;2023-06-24T00:05:47;14.77;;;8.47;;
19131;SDS011;9698;51.976;7.570;2023-06-24T00:08:16;9.50;;;8.60;;
19131;SDS011;9698;51.976;7.570;2023-06-24T00:10:45;10.43;;;9.03;;
19131;SDS011;9698;51.976;7.570;2023-06-24T00:13:14;9.93;;;8.93;;
19131;SDS011;9698;51.976;7.570;2023-06-24T00:15:42;10.20;;;9.20;;
19131;SDS011;9698;51.976;7.570;2023-06-24T00:18:10;10.47;;;9.27;;
19131;SDS011;9698;51.976;7.570;2023-06-24T00:20:38;10.70;;;9.60;;
19131;SDS011;9698;51.976;7.570;2023-06-24T00:23:09;9.87;;;8.87;;
19131;SDS011;9698;51.976;7.570;2023-06-24T00:25:40;9.50;;;8.63;;
19131;SDS011;9698;51.976;7.570;2023-06-24T00:28:09;11.00;;;9.10;;
19131;SDS011;9698;51.976;7.570;2023-06-24T00:30:36;11.50;;;9.57;;
19131;SDS011;9698;51.976;7.570;2023-06-24T00:33:04;12.03;;;9.43;;
19131;SDS011;9698;51.976;7.570;2023-06-24T00:35:35;9.97;;;8.90;;
19131;SDS011;9698;51.976;7.570;2023-06-24T00:38:03;10.77;;;9.33;;
19131;SDS011;9698;51.976;7.570;2023-06-24T00:40:31;11.13;;;9.07;;
19131;SDS011;9698;51.976;7.570;2023-06-24T00:43:00;10.00;;;8.70;;
19131;SDS011;9698;51.976;7.570;2023-06-24T00:45:29;9.57;;;8.67;;
19131;SDS011;9698;51.976;7.570;2023-06-24T00:47:58;11.10;;;8.87;;
19131;SDS011;9698;51.976;7.570;2023-06-24T00:50:27;11.07;;;9.27;;
19131;SDS011;9698;51.976;7.570;2023-06-24T00:52:55;9.50;;;8.60;;
19131;SDS011;9698;51.976;7.570;2023-06-24T00:55:23;11.47;;;9.10;;
19131;SDS011;9698;51.976;7.570;2023-06-24T00:57:51;11.07;;;9.40;;
19131;SDS011;9698;51.976;7.570;2023-06-24T01:00:20;14.10;;;9.53;;
19131;SDS011;9698;51.976;7.570;2023-06-24T01:02:49;9.93;;;8.97;;
19131;SDS011;9698;51.976;7.570;2023-06-24T01:05:18;11.40;;;8.50;;
19131;SDS011;9698;51.976;7.570;2023-06-24T01:07:49;10.27;;;8.80;;
19131;SDS011;9698;51.976;7.570;2023-06-24T01:10:22;9.50;;;8.50;;
19131;SDS011;9698;51.976;7.570;2023-06-24T01:12:50;10.00;;;8.27;;
19131;SDS011;9698;51.976;7.570;2023-06-24T01:15:18;11.90;;;8.07;;
19131;SDS011;9698;51.976;7.570;2023-06-24T01:17:50;10.77;;;8.83;;
19131;SDS011;9698;51.976;7.570;2023-06-24T01:20:25;9.77;;;8.87;;
19131;SDS011;9698;51.976;7.570;2023-06-24T01:23:06;10.63;;;8.90;;
19131;SDS011;9698;51.976;7.570;2023-06-24T01:25:46;12.27;;;8.90;;
19131;SDS011;9698;51.976;7.570;2023-06-24T01:28:33;9.97;;;8.50;;
19131;SDS011;9698;51.976;7.570;2023-06-24T01:31:30;9.20;;;8.30;;
19131;SDS011;9698;51.976;7.570;2023-06-24T01:34:05;9.20;;;8.30;;
19131;SDS011;9698;51.976;7.570;2023-06-24T01:36:40;8.63;;;7.83;;
19131;SDS011;9698;51.976;7.570;2023-06-24T01:39:10;10.87;;;8.60;;
19131;SDS011;9698;51.976;7.570;2023-06-24T01:41:42;8.97;;;8.07;;
19131;SDS011;9698;51.976;7.570;2023-06-24T01:44:13;8.67;;;7.77;;
19131;SDS011;9698;51.976;7.570;2023-06-24T01:46:44;9.87;;;8.27;;
19131;SDS011;9698;51.976;7.570;2023-06-24T01:49:15;10.03;;;8.30;;
19131;SDS011;9698;51.976;7.570;2023-06-24T01:51:44;9.70;;;8.70;;
19131;SDS011;9698;51.976;7.570;2023-06-24T01:54:15;9.87;;;8.87;;
19131;SDS011;9698;51.976;7.570;2023-06-24T01:56:46;9.17;;;8.27;;
19131;SDS011;9698;51.976;7.570;2023-06-24T01:59:16;8.80;;;7.90;;
19131;SDS011;9698;51.976;7.570;2023-06-24T02:01:46;9.73;;;8.83;;
19131;SDS011;9698;51.976;7.570;2023-06-24T02:04:15;10.47;;;8.03;;
19131;SDS011;9698;51.976;7.570;2023-06-24T02:06:44;9.47;;;8.50;;
19131;SDS011;9698;51.976;7.570;2023-06-24T02:09:13;8.83;;;7.90;;
19131;SDS011;9698;51.976;7.570;2023-06-24T02:11:44;8.97;;;7.53;;
19131;SDS011;9698;51.976;7.570;2023-06-24T02:14:13;10.03;;;8.23;;
19131;SDS011;9698;51.976;7.570;2023-06-24T02:16:42;8.60;;;7.80;;
19131;SDS011;9698;51.976;7.570;2023-06-24T02:19:12;9.53;;;8.00;;
19131;SDS011;9698;51.976;7.570;2023-06-24T02:21:44;9.80;;;8.20;;
19131;SDS011;9698;51.976;7.570;2023-06-24T02:24:13;8.57;;;7.57;;
19131;SDS011;9698;51.976;7.570;2023-06-24T02:26:41;8.97;;;7.80;;
19131;SDS011;9698;51.976;7.570;2023-06-24T02:29:09;8.97;;;8.00;;
19131;SDS011;9698;51.976;7.570;2023-06-24T02:31:39;9.40;;;8.20;;
19131;SDS011;9698;51.976;7.570;2023-06-24T02:34:07;9.23;;;8.30;;
19131;SDS011;9698;51.976;7.570;2023-06-24T02:36:35;8.97;;;7.97;;
19131;SDS011;9698;51.976;7.570;2023-06-24T02:39:03;8.90;;;8.03;;
19131;SDS011;9698;51.976;7.570;2023-06-24T02:41:31;9.40;;;8.50;;
19131;SDS011;9698;51.976;7.570;2023-06-24T02:43:59;9.13;;;7.87;;
19131;SDS011;9698;51.976;7.570;2023-06-24T02:46:27;9.07;;;7.63;;
19131;SDS011;9698;51.976;7.570;2023-06-24T02:48:58;8.40;;;7.53;;
19131;SDS011;9698;51.976;7.570;2023-06-24T02:51:26;8.67;;;7.87;;
19131;SDS011;9698;51.976;7.570;2023-06-24T02:53:55;9.27;;;8.00;;
19131;SDS011;9698;51.976;7.570;2023-06-24T02:56:24;8.97;;;7.87;;
19131;SDS011;9698;51.976;7.570;2023-06-24T03:01:43;10.00;;;7.97;;
19131;SDS011;9698;51.976;7.570;2023-06-24T03:04:12;8.30;;;7.50;;
19131;SDS011;9698;51.976;7.570;2023-06-24T03:06:40;9.43;;;8.10;;
19131;SDS011;9698;51.976;7.570;2023-06-24T03:09:08;9.23;;;8.00;;
19131;SDS011;9698;51.976;7.570;2023-06-24T03:11:42;10.37;;;8.20;;
19131;SDS011;9698;51.976;7.570;2023-06-24T03:14:11;8.33;;;7.57;;
19131;SDS011;9698;51.976;7.570;2023-06-24T03:16:39;9.50;;;7.97;;
19131;SDS011;9698;51.976;7.570;2023-06-24T03:19:07;10.20;;;8.33;;
19131;SDS011;9698;51.976;7.570;2023-06-24T03:21:35;10.03;;;8.37;;
19131;SDS011;9698;51.976;7.570;2023-06-24T03:24:04;10.60;;;9.20;;
19131;SDS011;9698;51.976;7.570;2023-06-24T03:26:33;10.43;;;9.03;;
19131;SDS011;9698;51.976;7.570;2023-06-24T03:29:02;10.57;;;8.00;;
19131;SDS011;9698;51.976;7.570;2023-06-24T03:31:30;11.20;;;8.47;;
19131;SDS011;9698;51.976;7.570;2023-06-24T03:33:58;10.53;;;8.17;;
19131;SDS011;9698;51.976;7.570;2023-06-24T03:36:26;9.80;;;8.13;;
19131;SDS011;9698;51.976;7.570;2023-06-24T03:38:54;8.87;;;7.97;;
19131;SDS011;9698;51.976;7.570;2023-06-24T03:41:22;9.67;;;8.67;;
19131;SDS011;9698;51.976;7.570;2023-06-24T03:43:52;9.87;;;8.87;;
19131;SDS011;9698;51.976;7.570;2023-06-24T03:46:20;11.60;;;8.97;;
19131;SDS011;9698;51.976;7.570;2023-06-24T03:48:49;10.47;;;9.37;;
19131;SDS011;9698;51.976;7.570;2023-06-24T03:51:17;9.33;;;8.40;;
19131;SDS011;9698;51.976;7.570;2023-06-24T03:53:45;12.23;;;8.93;;
19131;SDS011;9698;51.976;7.570;2023-06-24T03:56:13;13.00;;;9.37;;
19131;SDS011;9698;51.976;7.570;2023-06-24T03:58:41;10.47;;;9.37;;
19131;SDS011;9698;51.976;7.570;2023-06-24T04:01:09;13.87;;;9.67;;
19131;SDS011;9698;51.976;7.570;2023-06-24T04:03:37;11.67;;;9.83;;
19131;SDS011;9698;51.976;7.570;2023-06-24T04:06:05;11.03;;;9.70;;
19131;SDS011;9698;51.976;7.570;2023-06-24T04:08:32;11.53;;;9.33;;
19131;SDS011;9698;51.976;7.570;2023-06-24T04:11:00;10.80;;;8.63;;
19131;SDS011;9698;51.976;7.570;2023-06-24T04:13:29;10.80;;;9.43;;
19131;SDS011;9698;51.976;7.570;2023-06-24T04:16:01;10.57;;;9.13;;
19131;SDS011;9698;51.976;7.570;2023-06-24T04:18:29;10.57;;;9.57;;
19131;SDS011;9698;51.976;7.570;2023-06-24T04:20:57;12.27;;;9.63;;
19131;SDS011;9698;51.976;7.570;2023-06-24T04:23:24;10.37;;;9.37;;
19131;SDS011;9698;51.976;7.570;2023-06-24T04:25:52;11.27;;;10.13;;
19131;SDS011;9698;51.976;7.570;2023-06-24T04:28:20;10.43;;;9.43;;
19131;SDS011;9698;51.976;7.570;2023-06-24T04:30:48;10.97;;;9.87;;
19131;SDS011;9698;51.976;7.570;2023-06-24T04:33:16;10.50;;;9.47;;
19131;SDS011;9698;51.976;7.570;2023-06-24T04:35:44;11.47;;;10.27;;
19131;SDS011;9698;51.976;7.570;2023-06-24T04:38:11;11.33;;;10.00;;
19131;SDS011;9698;51.976;7.570;2023-06-24T04:40:44;11.60;;;10.40;;
19131;SDS011;9698;51.976;7.570;2023-06-24T04:43:12;12.60;;;10.33;;
19131;SDS011;9698;51.976;7.570;2023-06-24T04:45:40;11.87;;;10.60;;
19131;SDS011;9698;51.976;7.570;2023-06-24T04:48:08;12.67;;;10.17;;
19131;SDS011;9698;51.976;7.570;2023-06-24T04:50:37;12.57;;;10.20;;
19131;SDS011;9698;51.976;7.570;2023-06-24T04:53:05;10.90;;;9.73;;
19131;SDS011;9698;51.976;7.570;2023-06-24T04:55:33;12.63;;;10.40;;
19131;SDS011;9698;51.976;7.570;2023-06-24T04:58:01;13.67;;;10.93;;
19131;SDS011;9698;51.976;7.570;2023-06-24T05:00:29;12.70;;;10.00;;
19131;SDS011;9698;51.976;7.570;2023-06-24T05:02:57;11.03;;;9.57;;
19131;SDS011;9698;51.976;7.570;2023-06-24T05:05:25;10.90;;;9.80;;
19131;SDS011;9698;51.976;7.570;2023-06-24T05:07:53;12.07;;;10.83;;
19131;SDS011;9698;51.976;7.570;2023-06-24T05:10:21;11.10;;;9.87;;
19131;SDS011;9698;51.976;7.570;2023-06-24T05:12:49;11.63;;;9.73;;
19131;SDS011;9698;51.976;7.570;2023-06-24T05:15:17;11.40;;;10.20;;
19131;SDS011;9698;51.976;7.570;2023-06-24T05:17:45;12.30;;;9.37;;
19131;SDS011;9698;51.976;7.570;2023-06-24T05:20:13;11.93;;;10.53;;
19131;SDS011;9698;51.976;7.570;2023-06-24T05:22:41;11.50;;;10.23;;
19131;SDS011;9698;51.976;7.570;2023-06-24T05:25:09;10.57;;;9.30;;
19131;SDS011;9698;51.976;7.570;2023-06-24T05:27:36;11.73;;;10.57;;
19131;SDS011;9698;51.976;7.570;2023-06-24T05:30:06;12.83;;;10.87;;
19131;SDS011;9698;51.976;7.570;2023-06-24T05:32:34;12.27;;;10.80;;
19131;SDS011;9698;51.976;7.570;2023-06-24T05:35:03;11.23;;;9.83;;
19131;SDS011;9698;51.976;7.570;2023-06-24T05:37:32;11.43;;;9.83;;
19131;SDS011;9698;51.976;7.570;2023-06-24T05:40:01;11.10;;;9.73;;
19131;SDS011;9698;51.976;7.570;2023-06-24T05:42:31;13.43;;;10.40;;
19131;SDS011;9698;51.976;7.570;2023-06-24T05:44:59;13.20;;;9.73;;
19131;SDS011;9698;51.976;7.570;2023-06-24T05:47:27;11.03;;;9.60;;
19131;SDS011;9698;51.976;7.570;2023-06-24T05:49:55;10.90;;;9.73;;
19131;SDS011;9698;51.976;7.570;2023-06-24T05:52:23;10.60;;;9.30;;
19131;SDS011;9698;51.976;7.570;2023-06-24T05:54:51;15.77;;;9.27;;
19131;SDS011;9698;51.976;7.570;2023-06-24T05:57:19;12.37;;;9.33;;
19131;SDS011;9698;51.976;7.570;2023-06-24T05:59:47;12.47;;;8.93;;
19131;SDS011;9698;51.976;7.570;2023-06-24T06:02:15;13.50;;;9.57;;
19131;SDS011;9698;51.976;7.570;2023-06-24T06:04:43;10.50;;;9.43;;
19131;SDS011;9698;51.976;7.570;2023-06-24T06:07:10;11.73;;;9.27;;
19131;SDS011;9698;51.976;7.570;2023-06-24T06:09:38;16.67;;;10.90;;
19131;SDS011;9698;51.976;7.570;2023-06-24T06:12:07;13.93;;;9.37;;
19131;SDS011;9698;51.976;7.570;2023-06-24T06:14:36;12.43;;;8.93;;
19131;SDS011;9698;51.976;7.570;2023-06-24T06:17:05;9.57;;;8.67;;
19131;SDS011;9698;51.976;7.570;2023-06-24T06:19:33;10.20;;;9.00;;
19131;SDS011;9698;51.976;7.570;2023-06-24T06:22:01;13.43;;;9.00;;
19131;SDS011;9698;51.976;7.570;2023-06-24T06:24:29;13.40;;;9.37;;
19131;SDS011;9698;51.976;7.570;2023-06-24T06:26:57;9.90;;;8.73;;
19131;SDS011;9698;51.976;7.570;2023-06-24T06:29:25;10.73;;;9.40;;
19131;SDS011;9698;51.976;7.570;2023-06-24T06:31:53;9.90;;;8.87;;
19131;SDS011;9698;51.976;7.570;2023-06-24T06:34:23;9.20;;;8.17;;
19131;SDS011;9698;51.976;7.570;2023-06-24T06:36:51;9.77;;;8.77;;
19131;SDS011;9698;51.976;7.570;2023-06-24T06:39:19;12.10;;;9.13;;
19131;SDS011;9698;51.976;7.570;2023-06-24T06:41:47;12.83;;;9.57;;
19131;SDS011;9698;51.976;7.570;2023-06-24T06:44:15;10.10;;;8.80;;
19131;SDS011;9698;51.976;7.570;2023-06-24T06:46:42;12.40;;;9.20;;
19131;SDS011;9698;51.976;7.570;2023-06-24T06:49:10;9.37;;;8.37;;
19131;SDS011;9698;51.976;7.570;2023-06-24T06:51:38;10.10;;;8.80;;
19131;SDS011;9698;51.976;7.570;2023-06-24T06:54:06;11.97;;;9.13;;
19131;SDS011;9698;51.976;7.570;2023-06-24T06:56:34;11.63;;;9.10;;
19131;SDS011;9698;51.976;7.570;2023-06-24T06:59:02;12.70;;;9.23;;
19131;SDS011;9698;51.976;7.570;2023-06-24T07:01:29;9.73;;;8.10;;
19131;SDS011;9698;51.976;7.570;2023-06-24T07:03:57;10.37;;;8.80;;
19131;SDS011;9698;51.976;7.570;2023-06-24T07:06:25;10.50;;;7.97;;
19131;SDS011;9698;51.976;7.570;2023-06-24T07:08:53;11.77;;;9.10;;
19131;SDS011;9698;51.976;7.570;2023-06-24T07:11:21;9.60;;;8.07;;
19131;SDS011;9698;51.976;7.570;2023-06-24T07:13:50;9.27;;;8.37;;
19131;SDS011;9698;51.976;7.570;2023-06-24T07:16:18;10.07;;;8.37;;
19131;SDS011;9698;51.976;7.570;2023-06-24T07:18:46;10.97;;;8.00;;
19131;SDS011;9698;51.976;7.570;2023-06-24T07:21:14;8.23;;;7.33;;
19131;SDS011;9698;51.976;7.570;2023-06-24T07:23:42;11.37;;;8.30;;
19131;SDS011;9698;51.976;7.570;2023-06-24T07:26:12;11.87;;;7.70;;
19131;SDS011;9698;51.976;7.570;2023-06-24T07:28:40;8.57;;;7.67;;
19131;SDS011;9698;51.976;7.570;2023-06-24T07:31:09;7.93;;;7.13;;
19131;SDS011;9698;51.976;7.570;2023-06-24T07:33:37;9.07;;;7.80;;
19131;SDS011;9698;51.976;7.570;2023-06-24T07:36:05;10.23;;;7.80;;
19131;SDS011;9698;51.976;7.570;2023-06-24T07:38:35;10.00;;;8.00;;
19131;SDS011;9698;51.976;7.570;2023-06-24T07:41:03;10.63;;;8.10;;
19131;SDS011;9698;51.976;7.570;2023-06-24T07:43:31;9.43;;;8.10;;
19131;SDS011;9698;51.976;7.570;2023-06-24T07:45:59;9.87;;;8.80;;
19131;SDS011;9698;51.976;7.570;2023-06-24T07:48:27;13.73;;;10.70;;
19131;SDS011;9698;51.976;7.570;2023-06-24T07:50:55;14.70;;;10.43;;
19131;SDS011;9698;51.976;7.570;2023-06-24T07:53:23;12.27;;;9.83;;
19131;SDS011;9698;51.976;7.570;2023-06-24T07:55:50;15.37;;;11.63;;
19131;SDS011;9698;51.976;7.570;2023-06-24T07:58:18;14.20;;;12.20;;
19131;SDS011;9698;51.976;7.570;2023-06-24T08:00:46;12.03;;;10.73;;
19131;SDS011;9698;51.976;7.570;2023-06-24T08:03:14;13.93;;;11.57;;
19131;SDS011;9698;51.976;7.570;2023-06-24T08:05:42;15.73;;;12.57;;
19131;SDS011;9698;51.976;7.570;2023-06-24T08:08:10;14.93;;;11.33;;
19131;SDS011;9698;51.976;7.570;2023-06-24T08:10:38;13.87;;;12.37;;
19131;SDS011;9698;51.976;7.570;2023-06-24T08:13:05;15.50;;;13.47;;
19131;SDS011;9698;51.976;7.570;2023-06-24T08:15:33;12.93;;;10.53;;
19131;SDS011;9698;51.976;7.570;2023-06-24T08:18:04;16.27;;;11.63;;
19131;SDS011;9698;51.976;7.570;2023-06-24T08:20:32;12.87;;;11.47;;
19131;SDS011;9698;51.976;7.570;2023-06-24T08:23:00;13.50;;;11.23;;
19131;SDS011;9698;51.976;7.570;2023-06-24T08:25:27;16.53;;;13.03;;
19131;SDS011;9698;51.976;7.570;2023-06-24T08:27:56;15.83;;;13.17;;
19131;SDS011;9698;51.976;7.570;2023-06-24T08:30:24;14.00;;;11.60;;
19131;SDS011;9698;51.976;7.570;2023-06-24T08:32:52;16.33;;;11.93;;
19131;SDS011;9698;51.976;7.570;2023-06-24T08:35:20;13.07;;;11.03;;
19131;SDS011;9698;51.976;7.570;2023-06-24T08:37:48;11.80;;;10.60;;
19131;SDS011;9698;51.976;7.570;2023-06-24T08:40:16;12.03;;;10.03;;
19131;SDS011;9698;51.976;7.570;2023-06-24T08:42:44;13.33;;;11.90;;
19131;SDS011;9698;51.976;7.570;2023-06-24T08:45:12;13.60;;;11.03;;
19131;SDS011;9698;51.976;7.570;2023-06-24T08:47:41;14.63;;;11.57;;
19131;SDS011;9698;51.976;7.570;2023-06-24T08:50:31;13.53;;;10.90;;
19131;SDS011;9698;51.976;7.570;2023-06-24T08:53:02;10.93;;;9.80;;
19131;SDS011;9698;51.976;7.570;2023-06-24T08:55:33;10.53;;;9.40;;
19131;SDS011;9698;51.976;7.570;2023-06-24T08:58:06;11.10;;;8.80;;
19131;SDS011;9698;51.976;7.570;2023-06-24T09:00:34;10.90;;;9.60;;
19131;SDS011;9698;51.976;7.570;2023-06-24T09:03:02;14.07;;;9.13;;
19131;SDS011;9698;51.976;7.570;2023-06-24T09:05:30;9.53;;;8.47;;
19131;SDS011;9698;51.976;7.570;2023-06-24T09:07:59;10.40;;;9.10;;
19131;SDS011;9698;51.976;7.570;2023-06-24T09:10:30;10.40;;;9.27;;
19131;SDS011;9698;51.976;7.570;2023-06-24T09:12:59;10.27;;;9.17;;
19131;SDS011;9698;51.976;7.570;2023-06-24T09:15:30;14.80;;;10.90;;
19131;SDS011;9698;51.976;7.570;2023-06-24T09:17:59;12.53;;;9.60;;
19131;SDS011;9698;51.976;7.570;2023-06-24T09:20:28;11.87;;;10.50;;
19131;SDS011;9698;51.976;7.570;2023-06-24T09:23:00;12.13;;;10.53;;
19131;SDS011;9698;51.976;7.570;2023-06-24T09:25:30;13.13;;;10.07;;
19131;SDS011;9698;51.976;7.570;2023-06-24T09:27:58;10.17;;;9.13;;
19131;SDS011;9698;51.976;7.570;2023-06-24T09:30:27;12.77;;;10.47;;
19131;SDS011;9698;51.976;7.570;2023-06-24T09:32:55;14.07;;;11.67;;
19131;SDS011;9698;51.976;7.570;2023-06-24T09:35:23;12.80;;;11.40;;
19131;SDS011;9698;51.976;7.570;2023-06-24T09:37:52;12.03;;;10.03;;
19131;SDS011;9698;51.976;7.570;2023-06-24T09:40:21;11.53;;;9.47;;
19131;SDS011;9698;51.976;7.570;2023-06-24T09:42:50;11.80;;;9.93;;
19131;SDS011;9698;51.976;7.570;2023-06-24T09:45:23;11.63;;;9.80;;
19131;SDS011;9698;51.976;7.570;2023-06-24T09:47:52;14.67;;;12.33;;
19131;SDS011;9698;51.976;7.570;2023-06-24T09:50:20;11.20;;;10.10;;
19131;SDS011;9698;51.976;7.570;2023-06-24T09:52:48;12.37;;;10.00;;
19131;SDS011;9698;51.976;7.570;2023-06-24T09:55:19;13.10;;;9.80;;
19131;SDS011;9698;51.976;7.570;2023-06-24T09:57:47;12.70;;;10.27;;
19131;SDS011;9698;51.976;7.570;2023-06-24T10:00:19;15.33;;;9.57;;
19131;SDS011;9698;51.976;7.570;2023-06-24T10:02:48;11.30;;;9.17;;
19131;SDS011;9698;51.976;7.570;2023-06-24T10:05:20;10.47;;;9.37;;
19131;SDS011;9698;51.976;7.570;2023-06-24T10:07:48;11.10;;;9.47;;
19131;SDS011;9698;51.976;7.570;2023-06-24T10:10:16;11.80;;;9.73;;
19131;SDS011;9698;51.976;7.570;2023-06-24T10:12:45;11.50;;;10.30;;
19131;SDS011;9698;51.976;7.570;2023-06-24T10:15:13;10.97;;;9.80;;
19131;SDS011;9698;51.976;7.570;2023-06-24T10:17:42;10.23;;;9.17;;
19131;SDS011;9698;51.976;7.570;2023-06-24T10:20:12;12.70;;;9.17;;
19131;SDS011;9698;51.976;7.570;2023-06-24T10:22:51;11.40;;;9.53;;
19131;SDS011;9698;51.976;7.570;2023-06-24T10:25:19;11.03;;;9.00;;
19131;SDS011;9698;51.976;7.570;2023-06-24T10:27:50;12.97;;;8.37;;
19131;SDS011;9698;51.976;7.570;2023-06-24T10:30:21;9.30;;;7.80;;
19131;SDS011;9698;51.976;7.570;2023-06-24T10:32:51;8.73;;;7.20;;
19131;SDS011;9698;51.976;7.570;2023-06-24T10:35:23;9.93;;;8.47;;
19131;SDS011;9698;51.976;7.570;2023-06-24T10:37:56;9.47;;;8.23;;
19131;SDS011;9698;51.976;7.570;2023-06-24T10:40:37;11.57;;;8.90;;
19131;SDS011;9698;51.976;7.570;2023-06-24T10:46:14;10.97;;;9.87;;
19131;SDS011;9698;51.976;7.570;2023-06-24T10:48:43;11.70;;;8.10;;
19131;SDS011;9698;51.976;7.570;2023-06-24T10:51:11;10.07;;;8.30;;
19131;SDS011;9698;51.976;7.570;2023-06-24T10:53:39;10.60;;;8.93;;
19131;SDS011;9698;51.976;7.570;2023-06-24T10:56:07;11.87;;;10.50;;
19131;SDS011;9698;51.976;7.570;2023-06-24T10:58:35;11.90;;;9.50;;
19131;SDS011;9698;51.976;7.570;2023-06-24T11:01:07;12.63;;;10.53;;
19131;SDS011;9698;51.976;7.570;2023-06-24T11:03:35;11.47;;;9.67;;
19131;SDS011;9698;51.976;7.570;2023-06-24T11:06:06;9.90;;;8.90;;
19131;SDS011;9698;51.976;7.570;2023-06-24T11:08:43;9.63;;;8.63;;
19131;SDS011;9698;51.976;7.570;2023-06-24T11:11:18;8.90;;;8.00;;
19131;SDS011;9698;51.976;7.570;2023-06-24T11:13:48;9.60;;;8.40;;
19131;SDS011;9698;51.976;7.570;2023-06-24T11:16:20;9.80;;;8.47;;
19131;SDS011;9698;51.976;7.570;2023-06-24T11:18:48;11.17;;;7.90;;
19131;SDS011;9698;51.976;7.570;2023-06-24T11:21:16;10.60;;;9.10;;
19131;SDS011;9698;51.976;7.570;2023-06-24T11:23:44;9.23;;;7.33;;
19131;SDS011;9698;51.976;7.570;2023-06-24T11:26:12;7.57;;;6.80;;
19131;SDS011;9698;51.976;7.570;2023-06-24T11:28:41;9.47;;;7.47;;
19131;SDS011;9698;51.976;7.570;2023-06-24T11:31:09;8.10;;;7.10;;
19131;SDS011;9698;51.976;7.570;2023-06-24T11:33:38;8.20;;;7.33;;
19131;SDS011;9698;51.976;7.570;2023-06-24T11:36:09;8.03;;;6.47;;
19131;SDS011;9698;51.976;7.570;2023-06-24T11:38:37;9.00;;;7.23;;
19131;SDS011;9698;51.976;7.570;2023-06-24T11:41:05;8.17;;;7.20;;
19131;SDS011;9698;51.976;7.570;2023-06-24T11:43:33;8.93;;;7.13;;
19131;SDS011;9698;51.976;7.570;2023-06-24T11:46:01;7.43;;;6.73;;
19131;SDS011;9698;51.976;7.570;2023-06-24T11:48:29;8.60;;;7.17;;
19131;SDS011;9698;51.976;7.570;2023-06-24T11:50:58;7.70;;;6.50;;
19131;SDS011;9698;51.976;7.570;2023-06-24T11:53:39;6.37;;;5.70;;
19131;SDS011;9698;51.976;7.570;2023-06-24T11:56:08;6.20;;;5.60;;
19131;SDS011;9698;51.976;7.570;2023-06-24T11:58:36;7.83;;;6.23;;
19131;SDS011;9698;51.976;7.570;2023-06-24T12:01:06;6.93;;;5.90;;
19131;SDS011;9698;51.976;7.570;2023-06-24T12:03:34;7.00;;;5.93;;
19131;SDS011;9698;51.976;7.570;2023-06-24T12:06:02;6.10;;;5.50;;
19131;SDS011;9698;51.976;7.570;2023-06-24T12:08:30;6.97;;;5.73;;
19131;SDS011;9698;51.976;7.570;2023-06-24T12:11:17;6.63;;;5.93;;
19131;SDS011;9698;51.976;7.570;2023-06-24T12:13:45;9.23;;;6.20;;
19131;SDS011;9698;51.976;7.570;2023-06-24T12:16:13;5.83;;;5.10;;
19131;SDS011;9698;51.976;7.570;2023-06-24T12:18:41;6.73;;;5.30;;
19131;SDS011;9698;51.976;7.570;2023-06-24T12:21:09;5.90;;;5.03;;
19131;SDS011;9698;51.976;7.570;2023-06-24T12:23:37;5.43;;;4.90;;
19131;SDS011;9698;51.976;7.570;2023-06-24T12:26:05;5.93;;;5.00;;
19131;SDS011;9698;51.976;7.570;2023-06-24T12:28:33;5.53;;;5.03;;
19131;SDS011;9698;51.976;7.570;2023-06-24T12:31:00;5.60;;;5.10;;
19131;SDS011;9698;51.976;7.570;2023-06-24T12:33:29;5.73;;;5.17;;
19131;SDS011;9698;51.976;7.570;2023-06-24T12:35:58;7.90;;;5.50;;
19131;SDS011;9698;51.976;7.570;2023-06-24T12:38:26;7.13;;;4.90;;
19131;SDS011;9698;51.976;7.570;2023-06-24T12:40:54;5.90;;;4.90;;
19131;SDS011;9698;51.976;7.570;2023-06-24T12:43:23;6.43;;;5.17;;
19131;SDS011;9698;51.976;7.570;2023-06-24T12:45:50;5.67;;;5.17;;
19131;SDS011;9698;51.976;7.570;2023-06-24T12:48:18;6.20;;;4.80;;
19131;SDS011;9698;51.976;7.570;2023-06-24T12:50:46;6.20;;;4.97;;
19131;SDS011;9698;51.976;7.570;2023-06-24T12:53:19;5.57;;;4.20;;
19131;SDS011;9698;51.976;7.570;2023-06-24T12:55:46;5.20;;;4.70;;
19131;SDS011;9698;51.976;7.570;2023-06-24T12:58:16;4.87;;;4.30;;
19131;SDS011;9698;51.976;7.570;2023-06-24T13:00:50;7.47;;;4.63;;
19131;SDS011;9698;51.976;7.570;2023-06-24T13:03:18;6.43;;;4.53;;
19131;SDS011;9698;51.976;7.570;2023-06-24T13:05:46;5.30;;;4.80;;
19131;SDS011;9698;51.976;7.570;2023-06-24T13:08:14;5.43;;;4.90;;
19131;SDS011;9698;51.976;7.570;2023-06-24T13:10:41;4.70;;;4.23;;
19131;SDS011;9698;51.976;7.570;2023-06-24T13:13:09;5.67;;;4.23;;
19131;SDS011;9698;51.976;7.570;2023-06-24T13:15:37;6.30;;;4.47;;
19131;SDS011;9698;51.976;7.570;2023-06-24T13:18:05;6.10;;;4.50;;
19131;SDS011;9698;51.976;7.570;2023-06-24T13:20:33;5.30;;;4.30;;
19131;SDS011;9698;51.976;7.570;2023-06-24T13:23:01;5.00;;;4.50;;
19131;SDS011;9698;51.976;7.570;2023-06-24T13:25:29;4.60;;;4.20;;
19131;SDS011;9698;51.976;7.570;2023-06-24T13:27:57;4.93;;;4.07;;
19131;SDS011;9698;51.976;7.570;2023-06-24T13:30:26;4.70;;;4.23;;
19131;SDS011;9698;51.976;7.570;2023-06-24T13:32:54;4.33;;;3.77;;
19131;SDS011;9698;51.976;7.570;2023-06-24T13:35:22;4.33;;;3.93;;
19131;SDS011;9698;51.976;7.570;2023-06-24T13:37:50;4.87;;;3.97;;
19131;SDS011;9698;51.976;7.570;2023-06-24T13:40:18;3.90;;;3.57;;
19131;SDS011;9698;51.976;7.570;2023-06-24T13:42:46;4.17;;;3.77;;
19131;SDS011;9698;51.976;7.570;2023-06-24T13:45:13;4.43;;;3.50;;
19131;SDS011;9698;51.976;7.570;2023-06-24T13:47:42;4.20;;;3.80;;
19131;SDS011;9698;51.976;7.570;2023-06-24T13:50:11;5.57;;;3.80;;
19131;SDS011;9698;51.976;7.570;2023-06-24T13:52:39;5.37;;;3.67;;
19131;SDS011;9698;51.976;7.570;2023-06-24T13:55:08;4.57;;;3.57;;
19131;SDS011;9698;51.976;7.570;2023-06-24T13:57:37;5.97;;;3.90;;
19131;SDS011;9698;51.976;7.570;2023-06-24T14:00:06;7.23;;;3.87;;
19131;SDS011;9698;51.976;7.570;2023-06-24T14:02:35;4.13;;;3.60;;
19131;SDS011;9698;51.976;7.570;2023-06-24T14:05:05;4.00;;;3.60;;
19131;SDS011;9698;51.976;7.570;2023-06-24T14:07:33;3.67;;;3.37;;
19131;SDS011;9698;51.976;7.570;2023-06-24T14:10:02;5.17;;;3.40;;
19131;SDS011;9698;51.976;7.570;2023-06-24T14:12:31;4.47;;;3.53;;
19131;SDS011;9698;51.976;7.570;2023-06-24T14:14:59;4.00;;;3.33;;
19131;SDS011;9698;51.976;7.570;2023-06-24T14:17:27;3.67;;;3.20;;
19131;SDS011;9698;51.976;7.570;2023-06-24T14:19:55;5.20;;;3.70;;
19131;SDS011;9698;51.976;7.570;2023-06-24T14:22:23;3.97;;;3.60;;
19131;SDS011;9698;51.976;7.570;2023-06-24T14:24:52;4.10;;;3.70;;
19131;SDS011;9698;51.976;7.570;2023-06-24T14:27:20;4.17;;;3.60;;
19131;SDS011;9698;51.976;7.570;2023-06-24T14:29:48;4.57;;;3.70;;
19131;SDS011;9698;51.976;7.570;2023-06-24T14:32:16;4.50;;;4.03;;
19131;SDS011;9698;51.976;7.570;2023-06-24T14:34:44;5.30;;;3.97;;
19131;SDS011;9698;51.976;7.570;2023-06-24T14:37:12;5.10;;;3.83;;
19131;SDS011;9698;51.976;7.570;2023-06-24T14:39:40;4.20;;;3.80;;
19131;SDS011;9698;51.976;7.570;2023-06-24T14:42:08;4.17;;;3.77;;
19131;SDS011;9698;51.976;7.570;2023-06-24T14:44:36;4.33;;;3.67;;
19131;SDS011;9698;51.976;7.570;2023-06-24T14:47:04;3.90;;;3.50;;
19131;SDS011;9698;51.976;7.570;2023-06-24T14:49:33;4.27;;;3.60;;
19131;SDS011;9698;51.976;7.570;2023-06-24T14:52:01;4.13;;;3.63;;
19131;SDS011;9698;51.976;7.570;2023-06-24T14:54:29;5.03;;;3.77;;
19131;SDS011;9698;51.976;7.570;2023-06-24T14:56:57;4.57;;;4.17;;
19131;SDS011;9698;51.976;7.570;2023-06-24T14:59:25;4.83;;;3.90;;
19131;SDS011;9698;51.976;7.570;2023-06-24T15:01:52;4.43;;;4.00;;
19131;SDS011;9698;51.976;7.570;2023-06-24T15:04:21;4.63;;;3.30;;
19131;SDS011;9698;51.976;7.570;2023-06-24T15:06:49;4.53;;;3.73;;
19131;SDS011;9698;51.976;7.570;2023-06-24T15:09:17;4.57;;;3.50;;